Observation data for Spur on 10/18/2019      Previous  Date       Current Mesonet Observations  Soil Data  Daily Summary Page  Observations in Plain Language
KSP1 180500Z 19003KT 15/01 A2985 RMK A01 T01490013  RH  040%=      5-min Rain = 0
KSP1 180505Z 21002KT 15/01 A2985 RMK A01 T01480014  RH  041%=      5-min Rain = 0
KSP1 180510Z 21003KT 15/02 A2985 RMK A01 T01470015  RH  041%=      5-min Rain = 0
KSP1 180515Z 19003KT 15/01 A2985 RMK A01 T01460014  RH  041%=      5-min Rain = 0
KSP1 180520Z 19003KT 15/01 A2985 RMK A01 T01470014  RH  041%=      5-min Rain = 0
KSP1 180525Z 22003KT 15/02 A2985 RMK A01 T01460015  RH  042%=      5-min Rain = 0
KSP1 180530Z 23003KT 15/01 A2985 RMK A01 T01460014  RH  041%=      5-min Rain = 0
KSP1 180535Z 22003KT 15/02 A2985 RMK A01 T01460015  RH  042%=      5-min Rain = 0
KSP1 180540Z 21003KT 14/02 A2985 RMK A01 T01440016  RH  042%=      5-min Rain = 0
KSP1 180545Z 20002KT 14/02 A2985 RMK A01 T01430016  RH  043%=      5-min Rain = 0
KSP1 180550Z 19002KT 14/02 A2985 RMK A01 T01410015  RH  043%=      5-min Rain = 0
KSP1 180555Z 21001KT 14/02 A2985 RMK A01 T01390017  RH  044%=      5-min Rain = 0
KSP1 180600Z 20001KT 14/02 A2985 RMK A01 T01360016  RH  045%=      5-min Rain = 0
KSP1 180605Z 25001KT 13/02 A2985 RMK A01 T01340018  RH  046%=      5-min Rain = 0
KSP1 180610Z 22001KT 13/01 A2985 RMK A01 T01300014  RH  046%=      5-min Rain = 0
KSP1 180615Z 22002KT 13/02 A2985 RMK A01 T01330015  RH  045%=      5-min Rain = 0
KSP1 180620Z 19002KT 14/01 A2985 RMK A01 T01370014  RH  044%=      5-min Rain = 0
KSP1 180625Z 18003KT 14/01 A2984 RMK A01 T01390013  RH  043%=      5-min Rain = 0
KSP1 180630Z 19003KT 14/01 A2984 RMK A01 T01400014  RH  043%=      5-min Rain = 0
KSP1 180635Z 19003KT 14/01 A2984 RMK A01 T01390013  RH  043%=      5-min Rain = 0
KSP1 180640Z 19003KT 14/01 A2984 RMK A01 T01390012  RH  043%=      5-min Rain = 0
KSP1 180645Z 20002KT 14/01 A2984 RMK A01 T01390011  RH  042%=      5-min Rain = 0
KSP1 180650Z 24002KT 14/01 A2984 RMK A01 T01370011  RH  043%=      5-min Rain = 0
KSP1 180655Z 24003KT 14/01 A2984 RMK A01 T01360012  RH  043%=      5-min Rain = 0
KSP1 180700Z 22002KT 13/01 A2984 RMK A01 T01330010  RH  043%=      5-min Rain = 0
KSP1 180705Z 21003KT 13/01 A2984 RMK A01 T01320009  RH  044%=      5-min Rain = 0
KSP1 180710Z 21003KT 13/01 A2984 RMK A01 T01320008  RH  043%=      5-min Rain = 0
KSP1 180715Z 19003KT 13/01 A2984 RMK A01 T01310006  RH  043%=      5-min Rain = 0
KSP1 180720Z 19003KT 13/01 A2984 RMK A01 T01320005  RH  042%=      5-min Rain = 0
KSP1 180725Z 19003KT 13/01 A2984 RMK A01 T01310005  RH  043%=      5-min Rain = 0
KSP1 180730Z 19004KT 13/00 A2984 RMK A01 T01310004  RH  042%=      5-min Rain = 0
KSP1 180735Z 19003KT 13/00 A2984 RMK A01 T01320004  RH  042%=      5-min Rain = 0
KSP1 180740Z 23003KT 13/01 A2984 RMK A01 T01310006  RH  043%=      5-min Rain = 0
KSP1 180745Z 25003KT 13/01 A2984 RMK A01 T01300005  RH  043%=      5-min Rain = 0
KSP1 180750Z 23004KT 13/00 A2984 RMK A01 T01260004  RH  044%=      5-min Rain = 0
KSP1 180755Z 23003KT 13/01 A2984 RMK A01 T01250005  RH  044%=      5-min Rain = 0
KSP1 180800Z 23003KT 13/00 A2983 RMK A01 T01270004  RH  043%=      5-min Rain = 0
KSP1 180805Z 22003KT 13/01 A2983 RMK A01 T01260007  RH  045%=      5-min Rain = 0
KSP1 180810Z 20003KT 12/00 A2983 RMK A01 T01240004  RH  044%=      5-min Rain = 0
KSP1 180815Z 19003KT 13/00 A2983 RMK A01 T01270003  RH  043%=      5-min Rain = 0
KSP1 180820Z 19003KT 13/01 A2983 RMK A01 T01300005  RH  043%=      5-min Rain = 0
KSP1 180825Z 19002KT 13/01 A2983 RMK A01 T01260011  RH  046%=      5-min Rain = 0
KSP1 180830Z 21001KT 11/01 A2982 RMK A01 T01080009  RH  051%=      5-min Rain = 0
KSP1 180835Z 21001KT 10/02 A2982 RMK A01 T00990020  RH  059%=      5-min Rain = 0
KSP1 180840Z 18000KT 10/02 A2982 RMK A01 T00960022  RH  061%=      5-min Rain = 0
KSP1 180845Z 02001KT 09/02 A2982 RMK A01 T00940017  RH  060%=      5-min Rain = 0
KSP1 180850Z 00001KT 09/02 A2982 RMK A01 T00920017  RH  061%=      5-min Rain = 0
KSP1 180855Z 33001KT 09/02 A2982 RMK A01 T00890018  RH  062%=      5-min Rain = 0
KSP1 180900Z 20000KT 09/02 A2981 RMK A01 T00920018  RH  061%=      5-min Rain = 0
KSP1 180905Z 19002KT 09/02 A2981 RMK A01 T00930017  RH  060%=      5-min Rain = 0
KSP1 180910Z 19003KT 09/02 A2981 RMK A01 T00940017  RH  059%=      5-min Rain = 0
KSP1 180915Z 19002KT 10/02 A2981 RMK A01 T00960017  RH  059%=      5-min Rain = 0
KSP1 180920Z 34001KT 09/02 A2981 RMK A01 T00940015  RH  059%=      5-min Rain = 0
KSP1 180925Z 36001KT 09/02 A298 RMK A01 T00880017  RH  062%=      5-min Rain = 0
KSP1 180930Z 08000KT 09/02 A298 RMK A01 T00890021  RH  063%=      5-min Rain = 0
KSP1 180935Z 09000KT 09/02 A298 RMK A01 T00910022  RH  063%=      5-min Rain = 0
KSP1 180940Z 16001KT 09/02 A298 RMK A01 T00910021  RH  063%=      5-min Rain = 0
KSP1 180945Z 18001KT 09/02 A2979 RMK A01 T00920022  RH  063%=      5-min Rain = 0
KSP1 180950Z 21002KT 10/02 A2979 RMK A01 T00950022  RH  062%=      5-min Rain = 0
KSP1 180955Z 23001KT 09/02 A298 RMK A01 T00930017  RH  060%=      5-min Rain = 0
KSP1 181000Z 26001KT 09/02 A298 RMK A01 T00870019  RH  063%=      5-min Rain = 0
KSP1 181005Z 24001KT 08/02 A2979 RMK A01 T00840020  RH  065%=      5-min Rain = 0
KSP1 181010Z 29000KT 09/02 A2979 RMK A01 T00850019  RH  064%=      5-min Rain = 0
KSP1 181015Z 27001KT 09/02 A2979 RMK A01 T00860018  RH  064%=      5-min Rain = 0
KSP1 181020Z 30001KT 09/02 A2979 RMK A01 T00850021  RH  065%=      5-min Rain = 0
KSP1 181025Z 31001KT 09/02 A2979 RMK A01 T00860021  RH  065%=      5-min Rain = 0
KSP1 181030Z 31001KT 09/02 A2979 RMK A01 T00890021  RH  064%=      5-min Rain = 0
KSP1 181035Z 33000KT 09/02 A2979 RMK A01 T00880021  RH  064%=      5-min Rain = 0
KSP1 181040Z 35000KT 09/02 A2979 RMK A01 T00870023  RH  065%=      5-min Rain = 0
KSP1 181045Z 02001KT 09/02 A2979 RMK A01 T00870023  RH  065%=      5-min Rain = 0
KSP1 181050Z 03002KT 08/02 A2979 RMK A01 T00820017  RH  064%=      5-min Rain = 0
KSP1 181055Z 05003KT 08/02 A2979 RMK A01 T00810023  RH  068%=      5-min Rain = 0
KSP1 181100Z 03002KT 08/03 A2979 RMK A01 T00810025  RH  069%=      5-min Rain = 0
KSP1 181105Z 03002KT 08/02 A2979 RMK A01 T00800022  RH  068%=      5-min Rain = 0
KSP1 181110Z 35002KT 08/03 A2979 RMK A01 T00820025  RH  068%=      5-min Rain = 0
KSP1 181115Z 31004KT 08/03 A2979 RMK A01 T00840030  RH  070%=      5-min Rain = 0
KSP1 181120Z 31004KT 08/03 A298 RMK A01 T00820028  RH  070%=      5-min Rain = 0
KSP1 181125Z 32004KT 08/03 A298 RMK A01 T00800025  RH  069%=      5-min Rain = 0
KSP1 181130Z 32003KT 08/03 A298 RMK A01 T00800025  RH  070%=      5-min Rain = 0
KSP1 181135Z 33003KT 08/03 A298 RMK A01 T00790025  RH  070%=      5-min Rain = 0
KSP1 181140Z 33002KT 08/02 A298 RMK A01 T00790024  RH  069%=      5-min Rain = 0
KSP1 181145Z 35001KT 08/03 A298 RMK A01 T00800026  RH  070%=      5-min Rain = 0
KSP1 181150Z 35001KT 08/03 A298 RMK A01 T00810027  RH  070%=      5-min Rain = 0
KSP1 181155Z 35000KT 08/03 A298 RMK A01 T00800028  RH  071%=      5-min Rain = 0
KSP1 181200Z 35000KT 08/03 A298 RMK A01 T00800028  RH  071%=      5-min Rain = 0
KSP1 181205Z 35002KT 08/03 A298 RMK A01 T00790028  RH  071%=      5-min Rain = 0
KSP1 181210Z 34004KT 08/02 A298 RMK A01 T00750021  RH  070%=      5-min Rain = 0
KSP1 181215Z 33005KT 07/03 A298 RMK A01 T00740027  RH  074%=      5-min Rain = 0
KSP1 181220Z 33004KT 07/03 A298 RMK A01 T00740029  RH  074%=      5-min Rain = 0
KSP1 181225Z 33004KT 07/03 A298 RMK A01 T00740028  RH  074%=      5-min Rain = 0
KSP1 181230Z 32004KT 07/03 A298 RMK A01 T00730026  RH  073%=      5-min Rain = 0
KSP1 181235Z 31005KT 07/03 A298 RMK A01 T00730026  RH  074%=      5-min Rain = 0
KSP1 181240Z 32005KT 07/03 A298 RMK A01 T00740031  RH  076%=      5-min Rain = 0
KSP1 181245Z 32005KT 08/03 A298 RMK A01 T00770034  RH  075%=      5-min Rain = 0
KSP1 181250Z 32004KT 08/04 A298 RMK A01 T00780035  RH  076%=      5-min Rain = 0
KSP1 181255Z 32002KT 08/03 A2979 RMK A01 T00780033  RH  075%=      5-min Rain = 0
KSP1 181300Z 32002KT 08/03 A2979 RMK A01 T00770031  RH  074%=      5-min Rain = 0
KSP1 181305Z 32002KT 08/03 A298 RMK A01 T00770032  RH  075%=      5-min Rain = 0
KSP1 181310Z 32002KT 08/03 A298 RMK A01 T00790033  RH  074%=      5-min Rain = 0
KSP1 181315Z 31002KT 08/03 A2979 RMK A01 T00810032  RH  072%=      5-min Rain = 0
KSP1 181320Z 30002KT 09/04 A2979 RMK A01 T00850035  RH  072%=      5-min Rain = 0
KSP1 181325Z 30001KT 09/04 A2979 RMK A01 T00920039  RH  071%=      5-min Rain = 0
KSP1 181330Z 31000KT 10/04 A2979 RMK A01 T01020042  RH  068%=      5-min Rain = 0
KSP1 181335Z 30001KT 11/04 A2979 RMK A01 T01100042  RH  064%=      5-min Rain = 0
KSP1 181340Z 26000KT 12/05 A2979 RMK A01 T01150046  RH  064%=      5-min Rain = 0
KSP1 181345Z 28000KT 12/05 A2979 RMK A01 T01240049  RH  062%=      5-min Rain = 0
KSP1 181350Z 28000KT 13/05 A2979 RMK A01 T01250049  RH  061%=      5-min Rain = 0
KSP1 181355Z 27000KT 13/06 A2979 RMK A01 T01270055  RH  063%=      5-min Rain = 0
KSP1 181400Z 21001KT 13/06 A2979 RMK A01 T01310059  RH  063%=      5-min Rain = 0
KSP1 181405Z 20001KT 14/06 A2979 RMK A01 T01390063  RH  061%=      5-min Rain = 0
KSP1 181410Z 20001KT 15/07 A2979 RMK A01 T01450067  RH  061%=      5-min Rain = 0
KSP1 181415Z 23003KT 14/07 A2979 RMK A01 T01430068  RH  062%=      5-min Rain = 0
KSP1 181420Z 22004KT 15/07 A298 RMK A01 T01470072  RH  062%=      5-min Rain = 0
KSP1 181425Z 22003KT 15/08 A2979 RMK A01 T01520076  RH  062%=      5-min Rain = 0
KSP1 181430Z 20003KT 16/08 A2979 RMK A01 T01560077  RH  061%=      5-min Rain = 0
KSP1 181435Z 18003KT 16/08 A2979 RMK A01 T01600078  RH  060%=      5-min Rain = 0
KSP1 181440Z 19004KT 16/08 A2979 RMK A01 T01610078  RH  059%=      5-min Rain = 0
KSP1 181445Z 21007KT 17/09 A2979 RMK A01 T01690085  RH  059%=      5-min Rain = 0
KSP1 181450Z 20009KT 18/09 A2979 RMK A01 T01750088  RH  058%=      5-min Rain = 0
KSP1 181455Z 20009KT 18/09 A2979 RMK A01 T01770088  RH  057%=      5-min Rain = 0
KSP1 181500Z 20008KT 18/09 A2979 RMK A01 T01800089  RH  057%=      5-min Rain = 0
KSP1 181505Z 21010KT 18/09 A2979 RMK A01 T01810088  RH  056%=      5-min Rain = 0
KSP1 181510Z 21010KT 18/09 A2979 RMK A01 T01830089  RH  056%=      5-min Rain = 0
KSP1 181515Z 21008KT 18/09 A2978 RMK A01 T01830089  RH  056%=      5-min Rain = 0
KSP1 181520Z 21008KT 18/09 A2978 RMK A01 T01830088  RH  056%=      5-min Rain = 0
KSP1 181525Z 21008KT 18/09 A2978 RMK A01 T01810088  RH  056%=      5-min Rain = 0
KSP1 181530Z 20007KT 19/09 A2978 RMK A01 T01870091  RH  055%=      5-min Rain = 0
KSP1 181535Z 20007KT 19/09 A2979 RMK A01 T01930092  RH  054%=      5-min Rain = 0
KSP1 181540Z 19007KT 20/09 A2978 RMK A01 T01950093  RH  053%=      5-min Rain = 0
KSP1 181545Z 20009KT 20/09 A2978 RMK A01 T01990093  RH  052%=      5-min Rain = 0
KSP1 181550Z 21008KT 20/09 A2978 RMK A01 T02000093  RH  052%=      5-min Rain = 0
KSP1 181555Z 20010KT 21/10 A2978 RMK A01 T02060095  RH  051%=      5-min Rain = 0
KSP1 181600Z 20010KT 21/10 A2977 RMK A01 T02100096  RH  050%=      5-min Rain = 0
KSP1 181605Z 21010KT 21/09 A2977 RMK A01 T02050094  RH  051%=      5-min Rain = 0
KSP1 181610Z 19008KT 20/10 A2977 RMK A01 T02040095  RH  051%=      5-min Rain = 0
KSP1 181615Z 19007G12KT 21/10 A2977 RMK A01 T02100099  RH  051%=      5-min Rain = 0
KSP1 181620Z 20009KT 22/10 A2976 RMK A01 T02190098  RH  048%=      5-min Rain = 0
KSP1 181625Z 20010G15KT 23/10 A2976 RMK A01 T02250099  RH  046%=      5-min Rain = 0
KSP1 181630Z 19009KT 23/10 A2976 RMK A01 T02260098  RH  046%=      5-min Rain = 0
KSP1 181635Z 20011G16KT 23/10 A2976 RMK A01 T02320097  RH  044%=      5-min Rain = 0
KSP1 181640Z 21009G15KT 24/10 A2976 RMK A01 T02380100  RH  043%=      5-min Rain = 0
KSP1 181645Z 21010G17KT 24/10 A2975 RMK A01 T02420098  RH  041%=      5-min Rain = 0
KSP1 181650Z 19011KT 24/10 A2975 RMK A01 T02410098  RH  042%=      5-min Rain = 0
KSP1 181655Z 19009KT 24/10 A2975 RMK A01 T02420098  RH  041%=      5-min Rain = 0
KSP1 181700Z 20010G15KT 24/10 A2975 RMK A01 T02440098  RH  041%=      5-min Rain = 0
KSP1 181705Z 20011G16KT 25/10 A2975 RMK A01 T02450097  RH  040%=      5-min Rain = 0
KSP1 181710Z 19011G17KT 25/10 A2974 RMK A01 T02470098  RH  040%=      5-min Rain = 0
KSP1 181715Z 19010KT 25/10 A2974 RMK A01 T02490099  RH  040%=      5-min Rain = 0
KSP1 181720Z 19012G17KT 25/10 A2974 RMK A01 T02500099  RH  040%=      5-min Rain = 0
KSP1 181725Z 19011KT 25/10 A2974 RMK A01 T02490097  RH  040%=      5-min Rain = 0
KSP1 181730Z 19011KT 25/10 A2973 RMK A01 T02510098  RH  039%=      5-min Rain = 0
KSP1 181735Z 19010KT 25/10 A2973 RMK A01 T02530099  RH  039%=      5-min Rain = 0
KSP1 181740Z 18009KT 26/10 A2973 RMK A01 T02560099  RH  038%=      5-min Rain = 0
KSP1 181745Z 18011G16KT 26/10 A2973 RMK A01 T02610100  RH  037%=      5-min Rain = 0
KSP1 181750Z 20011G16KT 26/10 A2973 RMK A01 T02620098  RH  037%=      5-min Rain = 0
KSP1 181755Z 20011G16KT 26/10 A2973 RMK A01 T02580097  RH  037%=      5-min Rain = 0
KSP1 181800Z 19010KT 26/10 A2972 RMK A01 T02610098  RH  037%=      5-min Rain = 0
KSP1 181805Z 19010G16KT 26/10 A2972 RMK A01 T02600097  RH  037%=      5-min Rain = 0
KSP1 181810Z 18009G14KT 26/10 A2971 RMK A01 T02610099  RH  037%=      5-min Rain = 0
KSP1 181815Z 18009G16KT 27/10 A2971 RMK A01 T02700101  RH  036%=      5-min Rain = 0
KSP1 181820Z 19011KT 27/10 A297 RMK A01 T02650098  RH  036%=      5-min Rain = 0
KSP1 181825Z 19013KT 27/10 A297 RMK A01 T02700099  RH  035%=      5-min Rain = 0
KSP1 181830Z 21011G17KT 28/10 A297 RMK A01 T02760099  RH  034%=      5-min Rain = 0
KSP1 181835Z 21012KT 28/10 A297 RMK A01 T02770100  RH  034%=      5-min Rain = 0
KSP1 181840Z 20011G17KT 28/10 A2969 RMK A01 T02800101  RH  034%=      5-min Rain = 0
KSP1 181845Z 21010G15KT 28/10 A2969 RMK A01 T02770100  RH  034%=      5-min Rain = 0
KSP1 181850Z 18009KT 28/10 A2969 RMK A01 T02800103  RH  034%=      5-min Rain = 0
KSP1 181855Z 18010G18KT 29/10 A2968 RMK A01 T02850104  RH  033%=      5-min Rain = 0
KSP1 181900Z 21011G17KT 29/10 A2968 RMK A01 T02880103  RH  033%=      5-min Rain = 0
KSP1 181905Z 20011G16KT 29/10 A2967 RMK A01 T02900104  RH  032%=      5-min Rain = 0
KSP1 181910Z 21012G18KT 29/11 A2967 RMK A01 T02910105  RH  033%=      5-min Rain = 0
KSP1 181915Z 20013G19KT 29/11 A2967 RMK A01 T02920106  RH  033%=      5-min Rain = 0
KSP1 181920Z 20013G19KT 29/11 A2966 RMK A01 T02910106  RH  033%=      5-min Rain = 0
KSP1 181925Z 20011G16KT 29/11 A2966 RMK A01 T02940106  RH  032%=      5-min Rain = 0
KSP1 181930Z 19009G14KT 30/11 A2965 RMK A01 T02950108  RH  032%=      5-min Rain = 0
KSP1 181935Z 21012G17KT 30/11 A2965 RMK A01 T02990109  RH  032%=      5-min Rain = 0
KSP1 181940Z 20013G19KT 30/11 A2965 RMK A01 T02970109  RH  032%=      5-min Rain = 0
KSP1 181945Z 21012KT 30/11 A2964 RMK A01 T03010111  RH  032%=      5-min Rain = 0
KSP1 181950Z 20012G17KT 30/11 A2964 RMK A01 T03020110  RH  032%=      5-min Rain = 0
KSP1 181955Z 20012KT 30/11 A2964 RMK A01 T03000109  RH  032%=      5-min Rain = 0
KSP1 182000Z 23011G17KT 30/11 A2964 RMK A01 T03020111  RH  032%=      5-min Rain = 0
KSP1 182005Z 21011G17KT 31/11 A2964 RMK A01 T03060112  RH  031%=      5-min Rain = 0
KSP1 182010Z 21010G15KT 31/11 A2963 RMK A01 T03050111  RH  031%=      5-min Rain = 0
KSP1 182015Z 20013KT 31/11 A2963 RMK A01 T03060111  RH  031%=      5-min Rain = 0
KSP1 182020Z 21010G19KT 31/11 A2963 RMK A01 T03070113  RH  031%=      5-min Rain = 0
KSP1 182025Z 21015G20KT 31/11 A2963 RMK A01 T03060108  RH  030%=      5-min Rain = 0
KSP1 182030Z 21010KT 31/11 A2962 RMK A01 T03070110  RH  031%=      5-min Rain = 0
KSP1 182035Z 23012G18KT 31/11 A2962 RMK A01 T03100107  RH  030%=      5-min Rain = 0
KSP1 182040Z 22011KT 31/11 A2962 RMK A01 T03080108  RH  030%=      5-min Rain = 0
KSP1 182045Z 21011G18KT 31/11 A2962 RMK A01 T03120109  RH  030%=      5-min Rain = 0
KSP1 182050Z 21011KT 31/11 A2961 RMK A01 T03100108  RH  030%=      5-min Rain = 0
KSP1 182055Z 20011G18KT 31/11 A2961 RMK A01 T03100109  RH  030%=      5-min Rain = 0
KSP1 182100Z 21011G20KT 31/11 A2961 RMK A01 T03110108  RH  030%=      5-min Rain = 0
KSP1 182105Z 22010KT 31/11 A2961 RMK A01 T03120108  RH  029%=      5-min Rain = 0
KSP1 182110Z 21011G18KT 31/11 A2961 RMK A01 T03130109  RH  030%=      5-min Rain = 0
KSP1 182115Z 22014G19KT 31/11 A2961 RMK A01 T03110107  RH  029%=      5-min Rain = 0
KSP1 182120Z 21011G16KT 31/11 A2961 RMK A01 T03110108  RH  030%=      5-min Rain = 0
KSP1 182125Z 22014G20KT 31/11 A2961 RMK A01 T03120106  RH  029%=      5-min Rain = 0
KSP1 182130Z 22012G17KT 31/11 A2961 RMK A01 T03130108  RH  029%=      5-min Rain = 0
KSP1 182135Z 21013G22KT 31/11 A2961 RMK A01 T03120108  RH  029%=      5-min Rain = 0
KSP1 182140Z 21009KT 31/11 A2961 RMK A01 T03140110  RH  029%=      5-min Rain = 0
KSP1 182145Z 21012G17KT 32/11 A2961 RMK A01 T03150109  RH  029%=      5-min Rain = 0
KSP1 182150Z 21011G16KT 31/11 A296 RMK A01 T03110108  RH  030%=      5-min Rain = 0
KSP1 182155Z 21011KT 31/11 A296 RMK A01 T03140109  RH  029%=      5-min Rain = 0
KSP1 182200Z 20013KT 31/11 A296 RMK A01 T03100107  RH  030%=      5-min Rain = 0
KSP1 182205Z 19013G20KT 31/11 A296 RMK A01 T03060105  RH  030%=      5-min Rain = 0
KSP1 182210Z 19012G18KT 31/11 A296 RMK A01 T03060105  RH  030%=      5-min Rain = 0
KSP1 182215Z 20012G18KT 31/11 A296 RMK A01 T03110106  RH  029%=      5-min Rain = 0
KSP1 182220Z 20013G19KT 31/11 A296 RMK A01 T03100105  RH  029%=      5-min Rain = 0
KSP1 182225Z 20014G19KT 31/11 A2959 RMK A01 T03090106  RH  029%=      5-min Rain = 0
KSP1 182230Z 20012G17KT 31/11 A296 RMK A01 T03070106  RH  030%=      5-min Rain = 0
KSP1 182235Z 21013G19KT 30/11 A2959 RMK A01 T03040105  RH  030%=      5-min Rain = 0
KSP1 182240Z 21010G17KT 30/11 A2959 RMK A01 T03040106  RH  030%=      5-min Rain = 0
KSP1 182245Z 20009G15KT 30/11 A2959 RMK A01 T02980106  RH  032%=      5-min Rain = 0
KSP1 182250Z 20010G15KT 30/11 A2959 RMK A01 T02960105  RH  032%=      5-min Rain = 0
KSP1 182255Z 19007KT 30/11 A2959 RMK A01 T02950106  RH  032%=      5-min Rain = 0
KSP1 182300Z 20008G16KT 30/11 A2959 RMK A01 T02980107  RH  032%=      5-min Rain = 0
KSP1 182305Z 20011KT 30/11 A2959 RMK A01 T03040106  RH  031%=      5-min Rain = 0
KSP1 182310Z 21009KT 31/11 A2959 RMK A01 T03050108  RH  031%=      5-min Rain = 0
KSP1 182315Z 21008KT 30/11 A2959 RMK A01 T03020109  RH  031%=      5-min Rain = 0
KSP1 182320Z 22008KT 30/11 A2959 RMK A01 T03030109  RH  031%=      5-min Rain = 0
KSP1 182325Z 21008KT 30/11 A2959 RMK A01 T03030108  RH  031%=      5-min Rain = 0
KSP1 182330Z 22010KT 30/10 A2959 RMK A01 T03030102  RH  030%=      5-min Rain = 0
KSP1 182335Z 22010KT 30/10 A2959 RMK A01 T03030096  RH  029%=      5-min Rain = 0
KSP1 182340Z 22009G14KT 30/10 A2959 RMK A01 T03010096  RH  029%=      5-min Rain = 0
KSP1 182345Z 22009KT 30/09 A2959 RMK A01 T03010093  RH  028%=      5-min Rain = 0
KSP1 182350Z 21012G17KT 30/09 A2959 RMK A01 T02990090  RH  028%=      5-min Rain = 0
KSP1 182355Z 23011G16KT 30/09 A2959 RMK A01 T02970086  RH  028%=      5-min Rain = 0
KSP1 190000Z 24009KT 29/08 A296 RMK A01 T02920084  RH  028%=      5-min Rain = 0
KSP1 190005Z 24008G13KT 29/08 A296 RMK A01 T02890079  RH  027%=      5-min Rain = 0
KSP1 190010Z 24007KT 29/08 A296 RMK A01 T02850076  RH  027%=      5-min Rain = 0
KSP1 190015Z 24006KT 28/07 A296 RMK A01 T02810074  RH  028%=      5-min Rain = 0
KSP1 190020Z 24006KT 28/07 A296 RMK A01 T02750073  RH  029%=      5-min Rain = 0
KSP1 190025Z 24005KT 27/07 A2961 RMK A01 T02700073  RH  029%=      5-min Rain = 0
KSP1 190030Z 24005KT 27/07 A2961 RMK A01 T02650073  RH  030%=      5-min Rain = 0
KSP1 190035Z 23005KT 26/07 A2961 RMK A01 T02610073  RH  031%=      5-min Rain = 0
KSP1 190040Z 23005KT 26/07 A2961 RMK A01 T02570073  RH  032%=      5-min Rain = 0
KSP1 190045Z 23005KT 25/07 A2961 RMK A01 T02540074  RH  032%=      5-min Rain = 0
KSP1 190050Z 22006KT 25/07 A2961 RMK A01 T02510074  RH  033%=      5-min Rain = 0
KSP1 190055Z 22006KT 25/07 A2961 RMK A01 T02480074  RH  034%=      5-min Rain = 0
KSP1 190100Z 22006KT 25/07 A2961 RMK A01 T02480073  RH  034%=      5-min Rain = 0
KSP1 190105Z 22006KT 25/07 A2961 RMK A01 T02470073  RH  034%=      5-min Rain = 0
KSP1 190110Z 22006KT 25/07 A2961 RMK A01 T02450073  RH  034%=      5-min Rain = 0
KSP1 190115Z 23006KT 25/07 A2961 RMK A01 T02450074  RH  034%=      5-min Rain = 0
KSP1 190120Z 23006KT 24/07 A2961 RMK A01 T02410074  RH  035%=      5-min Rain = 0
KSP1 190125Z 22006KT 24/08 A2961 RMK A01 T02360075  RH  036%=      5-min Rain = 0
KSP1 190130Z 22006KT 24/08 A2961 RMK A01 T02350075  RH  037%=      5-min Rain = 0
KSP1 190135Z 22005KT 23/08 A2961 RMK A01 T02330075  RH  037%=      5-min Rain = 0
KSP1 190140Z 22005KT 23/08 A2961 RMK A01 T02300076  RH  038%=      5-min Rain = 0
KSP1 190145Z 23005KT 23/08 A2962 RMK A01 T02260076  RH  039%=      5-min Rain = 0
KSP1 190150Z 23005KT 22/08 A2962 RMK A01 T02230076  RH  040%=      5-min Rain = 0
KSP1 190155Z 23005KT 22/08 A2962 RMK A01 T02210075  RH  040%=      5-min Rain = 0
KSP1 190200Z 23005KT 22/08 A2962 RMK A01 T02190075  RH  040%=      5-min Rain = 0
KSP1 190205Z 23005KT 22/08 A2962 RMK A01 T02180075  RH  041%=      5-min Rain = 0
KSP1 190210Z 23006KT 22/07 A2963 RMK A01 T02190074  RH  040%=      5-min Rain = 0
KSP1 190215Z 25016G26KT 24/07 A2964 RMK A01 T02370068  RH  035%=      5-min Rain = 0
KSP1 190220Z 26014G22KT 25/07 A2964 RMK A01 T02490065  RH  031%=      5-min Rain = 0
KSP1 190225Z 27014G24KT 25/06 A2964 RMK A01 T02510062  RH  030%=      5-min Rain = 0
KSP1 190230Z 28015G25KT 25/06 A2964 RMK A01 T02540058  RH  029%=      5-min Rain = 0
KSP1 190235Z 29017G29KT 26/06 A2964 RMK A01 T02550061  RH  030%=      5-min Rain = 0
KSP1 190240Z 30018G28KT 25/07 A2964 RMK A01 T02530067  RH  031%=      5-min Rain = 0
KSP1 190245Z 30016G22KT 25/07 A2965 RMK A01 T02490072  RH  033%=      5-min Rain = 0
KSP1 190250Z 31016G22KT 25/08 A2965 RMK A01 T02460075  RH  035%=      5-min Rain = 0
KSP1 190255Z 31015G22KT 24/08 A2965 RMK A01 T02410080  RH  037%=      5-min Rain = 0
KSP1 190300Z 31013G20KT 24/08 A2965 RMK A01 T02370083  RH  038%=      5-min Rain = 0
KSP1 190305Z 32010G17KT 23/08 A2965 RMK A01 T02330084  RH  040%=      5-min Rain = 0
KSP1 190310Z 32011KT 23/08 A2965 RMK A01 T02310084  RH  040%=      5-min Rain = 0
KSP1 190315Z 32009KT 23/08 A2966 RMK A01 T02290084  RH  041%=      5-min Rain = 0
KSP1 190320Z 31007KT 23/08 A2966 RMK A01 T02260084  RH  041%=      5-min Rain = 0
KSP1 190325Z 30007KT 22/09 A2966 RMK A01 T02230085  RH  042%=      5-min Rain = 0
KSP1 190330Z 29006KT 22/09 A2966 RMK A01 T02200085  RH  043%=      5-min Rain = 0
KSP1 190335Z 29005KT 22/09 A2967 RMK A01 T02180085  RH  044%=      5-min Rain = 0
KSP1 190340Z 29006KT 22/08 A2967 RMK A01 T02150084  RH  044%=      5-min Rain = 0
KSP1 190345Z 28006KT 21/08 A2967 RMK A01 T02140083  RH  044%=      5-min Rain = 0
KSP1 190350Z 28005KT 21/08 A2967 RMK A01 T02100082  RH  045%=      5-min Rain = 0
KSP1 190355Z 29007KT 21/08 A2967 RMK A01 T02110079  RH  044%=      5-min Rain = 0
KSP1 190400Z 29008KT 22/08 A2967 RMK A01 T02170077  RH  041%=      5-min Rain = 0
KSP1 190405Z 29007KT 22/08 A2967 RMK A01 T02170076  RH  041%=      5-min Rain = 0
KSP1 190410Z 30008KT 22/08 A2967 RMK A01 T02150075  RH  041%=      5-min Rain = 0
KSP1 190415Z 30009KT 21/07 A2967 RMK A01 T02140073  RH  041%=      5-min Rain = 0
KSP1 190420Z 29009KT 22/07 A2967 RMK A01 T02150072  RH  041%=      5-min Rain = 0
KSP1 190425Z 29008KT 22/07 A2967 RMK A01 T02150072  RH  041%=      5-min Rain = 0
KSP1 190430Z 29007KT 21/07 A2967 RMK A01 T02140072  RH  041%=      5-min Rain = 0
KSP1 190435Z 29007KT 21/07 A2967 RMK A01 T02110071  RH  041%=      5-min Rain = 0
KSP1 190440Z 29007KT 21/07 A2967 RMK A01 T02080071  RH  042%=      5-min Rain = 0
KSP1 190445Z 30007KT 21/07 A2967 RMK A01 T02060071  RH  042%=      5-min Rain = 0
KSP1 190450Z 30007KT 20/07 A2967 RMK A01 T02040070  RH  043%=      5-min Rain = 0
KSP1 190455Z 31007KT 20/07 A2967 RMK A01 T01990070  RH  044%=      5-min Rain = 0

Page generated in 0.0092 seconds.